Time;durP1;ratioP1;P1;durP2;ratioP2;P2;SDS_P1;SDS_P2;PMS_P1;PMS_P2;Temp;Humidity;BMP_temperature;BMP_pressure;BME280_temperature;BME280_humidity;BME280_pressure;Samples;Min_cycle;Max_cycle;Signal;HPM_P1;HPM_P2
2023/09/21 14:14:17;;;;;;;7.10;2.90;;;;;;;23.78;100.00;98132.09;5176129;27;20373;-96
2023/09/21 14:16:43;;;;;;;6.85;2.40;;;;;;;24.29;100.00;98204.34;5152247;27;20484;-95
2023/09/21 14:19:09;;;;;;;7.50;2.75;;;;;;;24.20;100.00;98210.59;5148412;27;20034;-96
2023/09/21 14:21:35;;;;;;;8.57;2.40;;;;;;;23.52;100.00;98175.13;5144130;28;20047;-96
2023/09/21 14:24:02;;;;;;;5.32;2.08;;;;;;;23.12;100.00;98136.16;5144610;28;20047;-96
2023/09/21 14:26:28;;;;;;;7.82;2.00;;;;;;;23.33;100.00;98194.91;5145430;28;20047;-95
2023/09/21 14:28:55;;;;;;;4.40;2.13;;;;;;;23.03;100.00;98222.88;5135585;28;20048;-95
2023/09/21 14:31:23;;;;;;;6.18;2.30;;;;;;;22.89;100.00;98195.06;5142080;28;20050;-95
2023/09/21 14:33:49;;;;;;;6.13;2.70;;;;;;;22.61;100.00;98153.25;5139398;28;20039;-95
2023/09/21 14:36:15;;;;;;;6.97;2.28;;;;;;;22.89;100.00;98210.50;5140239;28;20069;-94
2023/09/21 14:38:41;;;;;;;7.13;2.58;;;;;;;22.32;100.00;98123.25;5142132;28;20051;-94
2023/09/21 14:41:07;;;;;;;8.45;2.15;;;;;;;22.60;100.00;98177.75;5142927;27;20048;-95
2023/09/21 14:43:34;;;;;;;3.83;2.28;;;;;;;22.41;100.00;98141.41;5147610;27;20035;-95
2023/09/21 14:46:00;;;;;;;9.57;2.42;;;;;;;22.29;100.00;98137.91;5149940;27;20040;-94
2023/09/21 14:48:29;;;;;;;5.50;2.58;;;;;;;22.67;100.00;98182.53;5149655;27;20055;-96
2023/09/21 14:50:56;;;;;;;5.07;2.03;;;;;;;22.70;100.00;98190.38;5150694;27;20039;-96
2023/09/21 14:53:25;;;;;;;7.53;2.90;;;;;;;22.46;100.00;98127.47;5150509;27;20039;-96
2023/09/21 14:55:52;;;;;;;7.60;2.92;;;;;;;22.56;100.00;98117.56;5147952;27;20483;-95
2023/09/21 14:58:20;;;;;;;4.85;2.13;;;;;;;23.39;100.00;98221.50;5139254;28;20031;-94
2023/09/21 15:00:47;;;;;;;5.85;2.53;;;;;;;23.11;100.00;98129.00;5140037;27;20516;-96
2023/09/21 15:03:15;;;;;;;6.45;2.70;;;;;;;23.34;100.00;98137.81;5140627;28;20138;-96
2023/09/21 15:05:45;;;;;;;8.60;2.17;;;;;;;23.70;100.00;98199.75;5148648;28;20047;-96
2023/09/21 15:08:11;;;;;;;7.90;2.42;;;;;;;23.28;100.00;98145.63;5147994;28;20040;-94
2023/09/21 15:10:39;;;;;;;6.72;2.00;;;;;;;23.06;100.00;98122.28;5148681;28;20032;-95
2023/09/21 15:13:08;;;;;;;6.72;2.33;;;;;;;22.86;100.00;98133.00;5345462;22;20053;-96
2023/09/21 15:15:34;;;;;;;7.72;2.30;;;;;;;22.56;100.00;98131.97;5039617;28;20132;-93
2023/09/21 15:18:00;;;;;;;7.95;2.60;;;;;;;22.30;100.00;98123.38;5041249;28;20045;-96
2023/09/21 15:20:27;;;;;;;6.65;2.80;;;;;;;22.05;100.00;98121.84;5042341;28;20057;-94
2023/09/21 15:22:54;;;;;;;8.18;3.15;;;;;;;22.27;100.00;98164.28;5045170;28;20042;-94
2023/09/21 15:25:21;;;;;;;7.28;2.65;;;;;;;22.24;100.00;98150.97;5032129;28;20046;-95
2023/09/21 15:27:48;;;;;;;8.90;3.22;;;;;;;21.97;100.00;98091.00;5029772;28;20050;-95
2023/09/21 15:30:14;;;;;;;8.02;2.65;;;;;;;22.03;100.00;98110.28;5033253;28;20058;-96
2023/09/21 15:32:41;;;;;;;7.10;3.30;;;;;;;22.02;100.00;98105.03;5034156;28;20052;-96
2023/09/21 15:35:26;;;;;;;7.32;3.03;;;;;;;22.07;100.00;98091.94;5031259;28;20045;-96
2023/09/21 15:38:07;;;;;;;10.95;3.72;;;;;;;22.00;100.00;98093.47;5033039;28;20121;-96
2023/09/21 15:40:35;;;;;;;8.98;3.05;;;;;;;22.17;100.00;98128.09;5030527;28;20096;-96
2023/09/21 15:43:02;;;;;;;8.98;4.15;;;;;;;22.02;100.00;98088.78;5032732;28;20048;-96
2023/09/21 15:46:15;;;;;;;17.42;4.72;;;;;;;22.54;100.00;98177.28;5034385;28;20065;-96
2023/09/21 15:48:43;;;;;;;9.73;3.40;;;;;;;22.08;100.00;98078.28;5034920;28;20044;-96
2023/09/21 15:51:09;;;;;;;6.70;2.70;;;;;;;22.16;100.00;98091.16;5033937;28;20507;-96
2023/09/21 15:53:36;;;;;;;8.65;3.03;;;;;;;22.08;100.00;98099.94;5030769;28;20060;-95
2023/09/21 15:56:22;;;;;;;5.40;2.88;;;;;;;22.10;100.00;98099.81;5032286;28;20389;-96
2023/09/21 15:58:51;;;;;;;8.25;2.88;;;;;;;21.59;100.00;98079.69;5031759;28;20053;-96
2023/09/21 16:01:18;;;;;;;9.65;3.55;;;;;;;21.40;100.00;98074.91;5030596;28;20037;-96
2023/09/21 16:03:44;;;;;;;9.48;4.05;;;;;;;21.88;100.00;98147.66;5033752;28;20046;-96
2023/09/21 16:06:10;;;;;;;9.23;3.65;;;;;;;21.46;100.00;98068.19;5030741;28;20038;-95
2023/09/21 16:08:36;;;;;;;7.50;3.92;;;;;;;21.59;100.00;98117.56;5028421;28;20049;-95
2023/09/21 16:11:03;;;;;;;9.30;3.30;;;;;;;21.58;100.00;98090.63;5028928;28;20046;-95
2023/09/21 16:13:30;;;;;;;6.28;3.83;;;;;;;21.48;100.00;98067.06;5028669;28;20058;-95
2023/09/21 16:15:56;;;;;;;11.63;4.43;;;;;;;21.57;100.00;98062.72;5025656;28;20052;-95
2023/09/21 16:18:23;;;;;;;9.68;3.72;;;;;;;21.53;100.00;98064.84;5024351;28;20050;-95
2023/09/21 16:20:49;;;;;;;9.25;3.75;;;;;;;21.54;100.00;98098.16;5024887;28;20046;-96
2023/09/21 16:23:16;;;;;;;9.55;3.47;;;;;;;21.53;100.00;98080.19;5025009;28;20077;-95
2023/09/21 16:25:42;;;;;;;6.07;3.33;;;;;;;21.76;100.00;98123.44;5025224;28;20113;-95
2023/09/21 16:28:09;;;;;;;7.32;3.05;;;;;;;21.40;100.00;98063.25;5025495;28;20084;-95
2023/09/21 16:30:37;;;;;;;7.00;2.80;;;;;;;21.52;100.00;98082.06;5009597;28;20050;-95
2023/09/21 16:33:03;;;;;;;5.45;3.35;;;;;;;21.58;100.00;98087.94;5022163;28;20050;-95
2023/09/21 16:35:31;;;;;;;7.88;2.63;;;;;;;21.31;100.00;98063.00;5021240;28;20129;-96
2023/09/21 16:37:58;;;;;;;9.68;3.03;;;;;;;21.21;100.00;98069.28;5022545;28;20047;-95
2023/09/21 16:40:25;;;;;;;5.20;3.08;;;;;;;21.25;100.00;98104.09;5022264;28;20137;-96
2023/09/21 16:42:54;;;;;;;6.68;2.92;;;;;;;20.86;100.00;98059.50;5022886;28;20030;-96
2023/09/21 16:45:20;;;;;;;8.07;3.40;;;;;;;21.13;100.00;98111.34;5006205;28;20047;-96
2023/09/21 16:47:59;;;;;;;8.60;3.05;;;;;;;21.23;100.00;98133.09;5023655;28;20046;-95
2023/09/21 16:50:25;;;;;;;7.45;3.75;;;;;;;20.90;100.00;98066.38;5026167;28;20061;-96
2023/09/21 16:52:51;;;;;;;10.10;3.17;;;;;;;20.97;100.00;98083.84;5027877;28;20046;-96
2023/09/21 16:55:18;;;;;;;6.85;3.08;;;;;;;20.90;100.00;98059.13;5026948;28;20081;-94
2023/09/21 16:57:44;;;;;;;5.60;2.80;;;;;;;21.17;100.00;98093.03;5027048;28;20049;-95
2023/09/21 17:00:14;;;;;;;7.22;3.30;;;;;;;20.80;100.00;98051.91;5026521;28;20041;-95
2023/09/21 17:02:40;;;;;;;6.85;3.08;;;;;;;20.82;100.00;98064.31;5027723;28;20550;-95
2023/09/21 17:05:09;;;;;;;5.10;2.75;;;;;;;20.80;100.00;98054.63;5027068;28;20081;-94
2023/09/21 17:07:35;;;;;;;6.10;2.88;;;;;;;21.21;100.00;98129.66;5025173;28;20049;-96
2023/09/21 17:10:01;;;;;;;7.45;3.13;;;;;;;21.24;100.00;98147.47;5026111;28;20136;-94
2023/09/21 17:12:29;;;;;;;4.40;2.38;;;;;;;20.96;100.00;98122.66;5045218;28;21449;-95
2023/09/21 17:14:55;;;;;;;10.93;3.10;;;;;;;20.41;100.00;98070.28;5045552;28;20045;-94
2023/09/21 17:17:21;;;;;;;7.30;2.90;;;;;;;20.48;100.00;98079.63;5027600;28;20046;-92
2023/09/21 17:19:47;;;;;;;5.13;2.85;;;;;;;20.43;100.00;98111.53;5026678;28;20109;-93
2023/09/21 17:22:19;;;;;;;7.10;3.53;;;;;;;20.32;100.00;98077.25;5025987;28;20049;-96
2023/09/21 17:24:46;;;;;;;7.88;3.10;;;;;;;20.23;100.00;98065.34;5029071;28;20446;-96
2023/09/21 17:27:14;;;;;;;8.23;3.00;;;;;;;20.60;100.00;98162.44;5039424;28;20046;-95
2023/09/21 17:29:43;;;;;;;9.50;3.80;;;;;;;20.11;100.00;98079.78;5043647;28;20030;-95
2023/09/21 17:32:10;;;;;;;8.48;3.88;;;;;;;19.90;100.00;98066.94;5041734;28;20049;-93
2023/09/21 17:34:36;;;;;;;7.18;3.20;;;;;;;20.13;100.00;98120.16;5025002;28;20491;-95
2023/09/21 17:37:03;;;;;;;9.18;3.25;;;;;;;20.24;100.00;98112.09;5025306;28;20046;-95
2023/09/21 17:39:31;;;;;;;7.80;3.33;;;;;;;20.44;100.00;98156.44;5024704;28;20483;-94
2023/09/21 17:41:58;;;;;;;6.32;3.05;;;;;;;20.44;100.00;98149.19;5024538;28;20487;-94
2023/09/21 17:44:24;;;;;;;8.10;3.33;;;;;;;20.08;100.00;98080.00;5040082;28;20096;-95
2023/09/21 17:46:50;;;;;;;8.00;3.03;;;;;;;20.10;100.00;98092.41;5040450;28;20041;-94
2023/09/21 17:49:16;;;;;;;8.55;3.20;;;;;;;20.38;100.00;98122.66;5023051;28;20064;-94
2023/09/21 17:51:42;;;;;;;8.77;3.03;;;;;;;19.93;100.00;98070.38;5024655;28;20054;-95
2023/09/21 17:54:08;;;;;;;9.35;3.75;;;;;;;20.22;100.00;98128.41;5026718;28;20099;-95
2023/09/21 17:56:39;;;;;;;12.52;4.32;;;;;;;20.16;100.00;98109.13;5046228;28;20122;-95
2023/09/21 17:59:05;;;;;;;6.30;3.13;;;;;;;19.87;100.00;98086.06;5044343;28;20403;-95
2023/09/21 18:01:31;;;;;;;5.50;2.85;;;;;;;19.79;100.00;98079.53;5043418;28;20136;-95
2023/09/21 18:04:00;;;;;;;7.30;3.53;;;;;;;19.79;100.00;98080.41;5042311;28;20037;-94
2023/09/21 18:06:26;;;;;;;8.45;3.50;;;;;;;20.48;100.00;98180.41;5042115;28;20025;-96
2023/09/21 18:08:52;;;;;;;9.95;3.13;;;;;;;20.16;100.00;98131.56;5039760;28;20430;-96
2023/09/21 18:11:18;;;;;;;9.50;3.85;;;;;;;19.95;100.00;98107.09;5041125;28;20037;-95
2023/09/21 18:13:46;;;;;;;9.88;3.63;;;;;;;19.87;100.00;98094.16;5040982;28;20087;-96
2023/09/21 18:16:12;;;;;;;10.68;4.00;;;;;;;19.98;100.00;98106.00;5041099;28;20068;-96
2023/09/21 18:18:38;;;;;;;13.45;4.03;;;;;;;20.07;100.00;98133.13;5042573;28;20049;-95
2023/09/21 18:21:04;;;;;;;14.73;3.70;;;;;;;20.04;100.00;98148.72;5054303;28;20045;-95
2023/09/21 18:23:30;;;;;;;12.82;3.78;;;;;;;19.95;100.00;98117.88;5020196;28;20076;-96
2023/09/21 18:25:57;;;;;;;9.88;3.88;;;;;;;20.21;100.00;98175.28;5019959;28;20090;-96
2023/09/21 18:28:23;;;;;;;17.55;4.38;;;;;;;19.78;100.00;98108.38;5036005;28;20113;-95
2023/09/21 18:30:50;;;;;;;7.85;3.42;;;;;;;20.24;100.00;98202.03;5020122;28;20491;-95
2023/09/21 18:33:16;;;;;;;6.57;3.50;;;;;;;19.57;100.00;98104.53;5035795;28;20057;-96
2023/09/21 18:35:42;;;;;;;9.82;3.22;;;;;;;20.01;100.00;98200.19;5019270;28;20097;-95
2023/09/21 18:38:09;;;;;;;10.93;3.67;;;;;;;19.47;100.00;98113.31;5020873;28;20406;-96
2023/09/21 18:40:35;;;;;;;9.32;3.70;;;;;;;19.63;100.00;98144.53;5021435;28;20046;-95
2023/09/21 18:43:01;;;;;;;7.07;3.40;;;;;;;19.52;100.00;98118.38;5022172;28;20041;-95
2023/09/21 18:45:27;;;;;;;8.50;3.45;;;;;;;19.56;100.00;98103.69;5031471;28;20136;-95
2023/09/21 18:47:56;;;;;;;6.55;4.00;;;;;;;20.04;100.00;98165.75;5042663;28;20060;-96
2023/09/21 18:50:23;;;;;;;10.32;4.60;;;;;;;19.63;100.00;98082.50;5041969;28;20108;-96
2023/09/21 18:52:50;;;;;;;8.20;3.85;;;;;;;19.66;100.00;98104.69;5043727;28;20029;-96
2023/09/21 18:55:17;;;;;;;13.63;4.10;;;;;;;19.88;100.00;98138.19;5059151;28;20532;-95
2023/09/21 18:57:46;;;;;;;7.07;3.95;;;;;;;19.44;100.00;98101.88;5039492;28;20062;-94
2023/09/21 19:00:14;;;;;;;9.40;3.92;;;;;;;19.55;100.00;98111.88;5043354;28;20042;-95
2023/09/21 19:02:40;;;;;;;7.78;3.13;;;;;;;19.63;100.00;98136.44;5046243;28;20041;-95
2023/09/21 19:05:09;;;;;;;8.38;3.70;;;;;;;20.03;100.00;98203.66;5047751;28;20128;-96
2023/09/21 19:07:35;;;;;;;9.95;3.63;;;;;;;19.42;100.00;98110.09;5050052;28;20041;-95
2023/09/21 19:10:03;;;;;;;8.95;3.42;;;;;;;19.78;100.00;98148.81;5048419;28;20068;-95
2023/09/21 19:12:29;;;;;;;10.15;3.70;;;;;;;19.56;100.00;98111.78;5048579;28;20053;-94
2023/09/21 19:14:56;;;;;;;9.10;3.10;;;;;;;19.65;100.00;98107.53;5050158;28;20042;-95
2023/09/21 19:17:22;;;;;;;7.55;3.60;;;;;;;19.67;100.00;98113.69;5050608;28;20049;-95
2023/09/21 19:19:48;;;;;;;10.90;4.07;;;;;;;19.65;100.00;98103.00;5050132;28;20045;-95
2023/09/21 19:22:16;;;;;;;10.88;3.78;;;;;;;20.00;100.00;98149.91;5050277;28;20072;-95
2023/09/21 19:24:44;;;;;;;8.05;4.10;;;;;;;20.23;100.00;98191.34;5065983;28;20034;-95
2023/09/21 19:27:10;;;;;;;11.02;4.45;;;;;;;19.58;100.00;98098.16;5048360;28;20095;-95
2023/09/21 19:29:36;;;;;;;10.35;4.28;;;;;;;19.74;100.00;98101.47;5048598;28;20061;-95
2023/09/21 19:32:05;;;;;;;7.72;3.95;;;;;;;19.65;100.00;98094.03;5048464;28;20037;-95
2023/09/21 19:34:31;;;;;;;10.90;4.20;;;;;;;19.43;100.00;98111.81;5048010;28;20049;-96
2023/09/21 19:36:57;;;;;;;11.82;4.28;;;;;;;19.62;100.00;98148.19;5049185;28;20049;-96
2023/09/21 19:39:25;;;;;;;11.43;4.60;;;;;;;19.38;100.00;98110.44;5066533;28;20383;-95
2023/09/21 19:41:52;;;;;;;9.00;4.30;;;;;;;19.36;100.00;98107.84;5049527;28;20042;-96
2023/09/21 19:44:18;;;;;;;11.07;4.40;;;;;;;19.55;100.00;98128.06;5050166;28;20050;-95
2023/09/21 19:46:48;;;;;;;10.82;4.10;;;;;;;19.64;100.00;98124.69;5050618;28;20527;-95
2023/09/21 19:49:14;;;;;;;17.58;4.93;;;;;;;19.67;100.00;98146.03;5049941;28;20038;-94
2023/09/21 19:51:41;;;;;;;13.43;4.68;;;;;;;19.57;100.00;98118.88;5047584;28;20052;-95
2023/09/21 19:54:07;;;;;;;11.32;4.90;;;;;;;19.40;100.00;98103.94;5046807;28;20052;-95
2023/09/21 19:56:35;;;;;;;10.73;4.28;;;;;;;19.96;100.00;98164.63;5047536;28;20045;-94
2023/09/21 19:59:03;;;;;;;14.82;4.97;;;;;;;19.65;100.00;98112.94;5034052;28;20042;-96
2023/09/21 20:01:30;;;;;;;14.68;4.70;;;;;;;19.96;100.00;98145.72;5026153;28;20077;-95
2023/09/21 20:03:56;;;;;;;10.63;5.43;;;;;;;19.61;100.00;98109.59;5060228;28;20112;-96
2023/09/21 20:06:22;;;;;;;12.73;4.60;;;;;;;19.68;100.00;98100.06;5029955;28;20495;-94
2023/09/21 20:08:49;;;;;;;12.57;5.40;;;;;;;19.70;100.00;98108.94;5025067;28;20057;-95
2023/09/21 20:11:16;;;;;;;11.48;5.25;;;;;;;19.72;100.00;98107.97;5026249;28;20384;-95
2023/09/21 20:13:44;;;;;;;12.18;4.15;;;;;;;19.79;100.00;98134.34;5026609;28;20054;-96
2023/09/21 20:16:14;;;;;;;11.43;4.00;;;;;;;19.46;100.00;98097.25;5025559;28;20141;-96
2023/09/21 20:18:43;;;;;;;11.68;4.00;;;;;;;19.53;100.00;98108.44;5026012;28;20049;-95
2023/09/21 20:21:13;;;;;;;7.95;4.00;;;;;;;19.56;100.00;98114.47;5030482;28;20070;-96
2023/09/21 20:23:39;;;;;;;9.32;4.18;;;;;;;19.42;100.00;98093.06;5038640;28;20421;-95
2023/09/21 20:26:06;;;;;;;9.43;4.00;;;;;;;19.63;100.00;98161.59;5037348;28;20133;-96
2023/09/21 20:28:33;;;;;;;6.65;3.05;;;;;;;19.32;100.00;98098.25;5027126;28;20046;-95
2023/09/21 20:31:05;;;;;;;7.80;3.38;;;;;;;19.40;100.00;98125.50;5026625;28;20047;-96
2023/09/21 20:33:32;;;;;;;6.32;3.10;;;;;;;19.24;100.00;98101.53;5027638;28;20046;-95
2023/09/21 20:35:58;;;;;;;9.60;4.15;;;;;;;19.56;100.00;98173.81;5025682;28;20076;-96
2023/09/21 20:38:24;;;;;;;11.35;3.88;;;;;;;18.96;100.00;98094.59;5025858;28;20050;-94
2023/09/21 20:40:51;;;;;;;7.78;4.07;;;;;;;19.17;100.00;98115.53;5026968;28;20050;-95
2023/09/21 20:43:17;;;;;;;9.38;3.65;;;;;;;19.06;100.00;98094.75;5027406;28;20046;-96
2023/09/21 20:45:44;;;;;;;8.30;3.63;;;;;;;19.00;100.00;98098.78;5026001;28;20045;-94
2023/09/21 20:48:13;;;;;;;9.55;3.50;;;;;;;19.46;100.00;98173.59;5028307;28;20046;-94
2023/09/21 20:50:39;;;;;;;9.38;3.53;;;;;;;18.87;100.00;98076.41;5027334;28;20049;-96
2023/09/21 20:53:05;;;;;;;8.80;4.20;;;;;;;19.02;100.00;98131.00;5027410;28;20096;-95
2023/09/21 20:55:31;;;;;;;8.48;3.40;;;;;;;18.91;100.00;98101.25;5024943;28;20049;-96
2023/09/21 20:57:57;;;;;;;7.15;3.95;;;;;;;18.92;100.00;98106.53;5027303;28;20046;-94
2023/09/21 21:00:24;;;;;;;7.13;3.50;;;;;;;18.77;100.00;98095.00;5036670;28;20136;-96
2023/09/21 21:02:50;;;;;;;12.75;4.30;;;;;;;18.97;100.00;98120.53;5045946;28;20042;-95
2023/09/21 21:05:17;;;;;;;13.80;4.45;;;;;;;18.78;100.00;98074.34;5046496;28;20120;-94
2023/09/21 21:07:43;;;;;;;13.45;4.53;;;;;;;19.25;100.00;98162.53;5032375;28;20100;-94
2023/09/21 21:10:10;;;;;;;14.20;4.32;;;;;;;19.06;100.00;98113.63;5022582;28;20072;-96
2023/09/21 21:12:36;;;;;;;7.15;4.22;;;;;;;18.87;100.00;98093.41;5028165;28;20086;-95
2023/09/21 21:15:03;;;;;;;8.27;3.90;;;;;;;18.90;100.00;98086.94;5023057;28;20045;-94
2023/09/21 21:17:29;;;;;;;12.13;3.92;;;;;;;19.44;100.00;98150.44;5031681;28;20056;-95
2023/09/21 21:19:55;;;;;;;8.90;3.78;;;;;;;19.20;100.00;98099.16;5028355;28;20113;-95
2023/09/21 21:22:23;;;;;;;12.13;4.43;;;;;;;19.80;100.00;98176.56;5035011;28;20086;-96
2023/09/21 21:24:49;;;;;;;7.78;4.15;;;;;;;19.77;100.00;98154.34;5022995;28;20077;-95
2023/09/21 21:27:15;;;;;;;11.07;4.05;;;;;;;19.28;100.00;98097.63;5034144;28;20048;-96
2023/09/21 21:29:42;;;;;;;9.18;3.50;;;;;;;19.28;100.00;98094.94;5038248;28;20077;-95
2023/09/21 21:32:12;;;;;;;10.35;3.25;;;;;;;19.34;100.00;98095.44;5022891;28;20488;-95
2023/09/21 21:34:38;;;;;;;7.75;3.90;;;;;;;19.77;100.00;98181.31;5023895;28;20109;-96
2023/09/21 21:44:29;;;;;;;10.27;3.53;;;;;;;19.67;100.00;98183.81;4985418;28;20069;-96
2023/09/21 21:46:55;;;;;;;9.10;3.95;;;;;;;18.87;100.00;98100.63;4966351;28;20103;-95
2023/09/21 21:49:40;;;;;;;9.13;3.38;;;;;;;18.92;100.00;98143.41;4983313;28;20124;-95
2023/09/21 21:52:06;;;;;;;10.98;3.28;;;;;;;18.59;100.00;98078.31;4965304;28;20160;-95
2023/09/21 21:54:32;;;;;;;13.75;4.07;;;;;;;19.25;100.00;98158.97;4966514;28;20047;-96
2023/09/21 21:56:58;;;;;;;11.18;3.97;;;;;;;19.00;100.00;98109.56;4966661;28;20043;-95
2023/09/21 21:59:25;;;;;;;10.15;4.05;;;;;;;18.92;100.00;98094.91;4949886;29;20588;-95
2023/09/21 22:01:52;;;;;;;10.70;4.32;;;;;;;18.85;100.00;98081.03;4932115;29;20602;-95
2023/09/21 22:04:18;;;;;;;11.32;4.53;;;;;;;18.82;100.00;98070.47;4943277;29;20130;-94
2023/09/21 22:06:44;;;;;;;13.50;4.47;;;;;;;19.08;100.00;98106.28;4944643;28;20071;-95
2023/09/21 22:09:10;;;;;;;8.65;3.92;;;;;;;19.03;100.00;98082.38;4961243;29;20049;-94
2023/09/21 22:11:37;;;;;;;12.98;4.38;;;;;;;19.36;100.00;98142.03;4936934;29;20058;-95
2023/09/21 22:14:03;;;;;;;10.07;4.22;;;;;;;19.32;100.00;98141.38;4941124;28;20369;-96
2023/09/21 22:16:30;;;;;;;10.27;4.10;;;;;;;18.98;100.00;98067.53;4964460;28;20103;-96
2023/09/21 22:18:56;;;;;;;10.50;4.60;;;;;;;19.29;100.00;98103.88;5014710;28;20152;-96
2023/09/21 22:21:22;;;;;;;15.60;4.05;;;;;;;19.79;100.00;98173.97;5007549;28;20069;-94
2023/09/21 22:23:49;;;;;;;9.40;4.28;;;;;;;19.40;100.00;98095.84;5003046;28;20046;-94
2023/09/21 22:26:14;;;;;;;8.75;4.43;;;;;;;19.64;100.00;98125.53;5002150;28;20042;-95
2023/09/21 22:28:40;;;;;;;14.18;4.35;;;;;;;19.70;100.00;98135.91;5003073;28;20089;-95
2023/09/21 22:31:12;;;;;;;11.35;4.97;;;;;;;19.59;100.00;98121.47;5002906;28;20048;-95
2023/09/21 22:33:40;;;;;;;11.27;4.80;;;;;;;19.68;100.00;98163.94;5008556;28;20500;-94
2023/09/21 22:36:06;;;;;;;12.95;4.35;;;;;;;19.84;100.00;98174.47;5007013;28;20073;-95
2023/09/21 22:38:32;;;;;;;13.18;5.00;;;;;;;19.55;100.00;98153.19;5018397;28;20049;-95
2023/09/21 22:40:59;;;;;;;10.27;5.57;;;;;;;19.56;100.00;98183.72;5018697;28;20053;-95
2023/09/21 22:43:25;;;;;;;10.63;4.57;;;;;;;19.32;100.00;98113.56;5010288;28;20118;-95
2023/09/21 22:45:51;;;;;;;12.27;4.15;;;;;;;19.40;100.00;98101.25;5005750;28;20038;-94
2023/09/21 22:48:17;;;;;;;8.93;3.72;;;;;;;19.46;100.00;98133.16;5006076;28;20050;-95
2023/09/21 22:50:45;;;;;;;17.63;4.65;;;;;;;19.56;100.00;98132.47;5005038;28;20046;-95
2023/09/21 22:53:12;;;;;;;10.07;3.97;;;;;;;19.64;100.00;98176.78;5006347;28;20034;-95
2023/09/21 22:55:38;;;;;;;9.93;3.75;;;;;;;19.28;100.00;98113.81;5020301;28;20045;-95
2023/09/21 22:58:04;;;;;;;11.18;4.18;;;;;;;19.63;100.00;98176.91;5016265;28;20137;-94
2023/09/21 23:00:32;;;;;;;9.27;3.38;;;;;;;19.27;100.00;98112.06;5022474;28;20550;-95
2023/09/21 23:02:59;;;;;;;9.20;3.70;;;;;;;19.45;100.00;98144.94;5006014;28;20145;-95
2023/09/21 23:05:25;;;;;;;9.93;3.38;;;;;;;19.35;100.00;98125.00;5008395;28;20042;-95
2023/09/21 23:07:55;;;;;;;7.40;3.28;;;;;;;19.40;100.00;98103.94;5012609;28;20045;-95
2023/09/21 23:10:26;;;;;;;10.07;3.67;;;;;;;19.82;100.00;98168.31;5007019;28;20493;-94
2023/09/21 23:12:53;;;;;;;11.40;3.80;;;;;;;19.59;100.00;98137.66;5007418;28;20061;-94
2023/09/21 23:15:20;;;;;;;13.35;3.35;;;;;;;19.60;100.00;98132.13;4993163;28;20046;-95
2023/09/21 23:17:48;;;;;;;9.93;3.65;;;;;;;19.32;100.00;98078.53;4997105;28;20049;-95
2023/09/21 23:20:14;;;;;;;7.15;4.43;;;;;;;19.61;100.00;98127.63;4999473;28;20072;-95
2023/09/21 23:22:41;;;;;;;10.80;4.20;;;;;;;19.52;100.00;98136.34;5005649;28;20069;-94
2023/09/21 23:25:09;;;;;;;7.05;3.35;;;;;;;19.52;100.00;98141.75;4996932;28;20038;-95
2023/09/21 23:27:35;;;;;;;6.03;3.20;;;;;;;19.23;100.00;98077.38;4992872;28;20049;-95
2023/09/21 23:30:01;;;;;;;9.65;3.63;;;;;;;19.29;100.00;98101.19;4990064;28;20050;-96
2023/09/21 23:32:27;;;;;;;5.95;2.97;;;;;;;19.53;100.00;98125.47;4990861;28;20042;-94
2023/09/21 23:34:53;;;;;;;9.32;3.70;;;;;;;19.14;100.00;98083.44;4989294;28;20069;-95
2023/09/21 23:37:19;;;;;;;12.82;4.25;;;;;;;19.31;100.00;98119.94;4989545;28;20508;-96
2023/09/21 23:39:47;;;;;;;8.07;3.95;;;;;;;19.26;100.00;98121.13;4987994;28;20101;-96
2023/09/21 23:42:15;;;;;;;11.75;3.85;;;;;;;19.34;100.00;98122.41;4985394;28;20029;-95
2023/09/21 23:44:41;;;;;;;9.07;3.72;;;;;;;18.83;100.00;98064.97;4999182;28;20169;-94
2023/09/21 23:47:08;;;;;;;6.93;3.33;;;;;;;19.13;100.00;98103.25;4989459;28;20046;-94
2023/09/21 23:49:35;;;;;;;9.73;3.65;;;;;;;18.79;100.00;98044.59;4990892;28;20042;-94
2023/09/21 23:52:01;;;;;;;10.15;3.90;;;;;;;19.24;100.00;98128.47;4985587;28;20042;-95
2023/09/21 23:54:28;;;;;;;12.38;4.35;;;;;;;19.26;100.00;98133.78;4999398;28;20522;-96
2023/09/21 23:56:54;;;;;;;9.57;4.13;;;;;;;19.05;100.00;98101.13;5000221;28;20037;-95
2023/09/21 23:59:22;;;;;;;11.27;4.47;;;;;;;18.92;100.00;98078.75;4988648;28;20407;-95
